Darstellungsparameter: Aktuell verwendete Einstellungen:
Skalierung der Graphiken ... ?
xyx+y,   Skalierungsfaktor:      Skalierung: Modus: x, Faktor: 1
Darstellungszeitraum ... ?
Vom - - bis: - -   Zeitraum: 30.09.2009 - 30.09.2009
Min/Max/Avg-Anzeige ... ?
Zeige MMA aktuell
Zeige MMA Monat
Zeige MMA alles
Zeige --A aktuell
Zeige --A Monat
Zeige --A alles
Keine MMA-Anzeige
MMA:
Minimum Maximum Average (ber die Originaldaten)
MMA-Basis: 30.09.2009 - 30.09.2009
Quicknavigation für Darstellung... ?
Tage:      1T, 2T, 3T, 5T -1T -2T -3T -5T +1T +2T +3T +5T
Wochen: 1W, 2W, 3W -1W -2W -3W +1W +2W +3W
Monate: 1M, 3M, 6M -1M -3M -6M +1M +3M +6M
Jahre:    1J, 3J, 5J, 10J -1J -3J -5J -10J +1J +3J +5J +10J
Nutze für die Darstellung ... ?
Originaldaten oder Mittelwerte auf ...
Stundenbasis Tagesbasis Wochenbasis
Monatsbasis Jahresbasis      Datenbasis: Original-Daten
Darstellen als:
Statistik (Auto) Statistik J:M      Darstellung:
Zur Graphik,    zurück zur Übersicht aller Sensoren.
 
Tabellarische Datenbersicht: ?
 
Sensor: Nr:Datum:Temp:Abs-Feuchte:Windchill:Wind:
Aussen-T/F 1 30-09-2009 00:00:03 15.9 C 10.16 g/m*3 15.9 C 0 km/h
2 30-09-2009 00:12:03 15.7 C 10.03 g/m*3 15.7 C 0 km/h
3 30-09-2009 00:24:03 15.6 C 10.11 g/m*3 15.6 C 0 km/h
4 30-09-2009 00:36:03 15.6 C 10.11 g/m*3 15.6 C 0 km/h
5 30-09-2009 00:48:03 15.6 C 10.11 g/m*3 15.6 C 0 km/h
6 30-09-2009 01:00:03 15.6 C 10.11 g/m*3 15.6 C 0 km/h
7 30-09-2009 01:12:04 15.6 C 10.11 g/m*3 15.6 C 0 km/h
8 30-09-2009 01:24:04 15.6 C 10.11 g/m*3 15.6 C 0 km/h
9 30-09-2009 01:36:04 15.6 C 10.11 g/m*3 15.6 C 0 km/h
10 30-09-2009 01:48:04 15.6 C 10.11 g/m*3 15.6 C 0 km/h
11 30-09-2009 02:00:04 15.6 C 9.97 g/m*3 15.6 C 0 km/h
12 30-09-2009 02:12:04 15.5 C 9.91 g/m*3 15.5 C 0 km/h
13 30-09-2009 02:24:04 15.5 C 9.91 g/m*3 15.5 C 0 km/h
14 30-09-2009 02:36:04 15.5 C 9.78 g/m*3 15.5 C 0 km/h
15 30-09-2009 02:48:04 15.6 C 9.84 g/m*3 15.6 C 0 km/h
16 30-09-2009 03:00:04 15.6 C 9.84 g/m*3 15.6 C 0 km/h
17 30-09-2009 03:12:04 15.6 C 9.84 g/m*3 15.6 C 0 km/h
18 30-09-2009 03:24:04 15.5 C 9.78 g/m*3 15.5 C 0 km/h
19 30-09-2009 03:36:04 15.5 C 9.78 g/m*3 15.5 C 0 km/h
20 30-09-2009 03:48:04 15.4 C 9.72 g/m*3 15.4 C 0 km/h
21 30-09-2009 04:00:04 15.4 C 9.72 g/m*3 15.4 C 0 km/h
22 30-09-2009 04:12:04 15.4 C 9.85 g/m*3 15.4 C 0 km/h
23 30-09-2009 04:24:04 15.3 C 9.79 g/m*3 15.3 C 0 km/h
24 30-09-2009 04:36:04 15.2 C 9.86 g/m*3 15.2 C 0 km/h
25 30-09-2009 04:48:04 15.2 C 9.86 g/m*3 15.2 C 0 km/h
Sensor: Nr:Datum:Temp:Abs-Feuchte:Windchill:Wind:
Aussen-T/F 26 30-09-2009 05:00:05 15.2 C 9.99 g/m*3 15.2 C 0 km/h
27 30-09-2009 05:12:05 15.2 C 10.12 g/m*3 15.2 C 0 km/h
28 30-09-2009 05:24:05 15.2 C 9.99 g/m*3 15.2 C 0 km/h
29 30-09-2009 05:36:05 15.3 C 10.06 g/m*3 15.3 C 0 km/h
30 30-09-2009 05:48:05 15.3 C 10.06 g/m*3 15.3 C 0 km/h
31 30-09-2009 06:00:05 15.3 C 9.92 g/m*3 15.3 C 0 km/h
32 30-09-2009 06:12:05 15.3 C 9.92 g/m*3 15.3 C 0 km/h
33 30-09-2009 06:24:05 15.3 C 9.92 g/m*3 15.3 C 0 km/h
34 30-09-2009 06:36:05 15.2 C 9.86 g/m*3 15.2 C 0 km/h
35 30-09-2009 06:48:05 15.2 C 9.99 g/m*3 15.2 C 0 km/h
36 30-09-2009 07:00:05 15.2 C 9.99 g/m*3 15.2 C 0 km/h
37 30-09-2009 07:12:05 15.1 C 9.93 g/m*3 15.1 C 0 km/h
38 30-09-2009 07:24:02 15.1 C 9.93 g/m*3 15.1 C 0 km/h
39 30-09-2009 07:36:02 15.1 C 9.93 g/m*3 15.1 C 0 km/h
40 30-09-2009 07:48:02 15.1 C 9.93 g/m*3 15.1 C 0 km/h
41 30-09-2009 08:00:02 15.2 C 9.99 g/m*3 15.2 C 0 km/h
42 30-09-2009 08:12:02 15.2 C 9.99 g/m*3 15.2 C 0 km/h
43 30-09-2009 08:24:02 15.4 C 10.12 g/m*3 15.4 C 0 km/h
44 30-09-2009 08:36:01 15.6 C 10.24 g/m*3 15.6 C 0 km/h
45 30-09-2009 08:48:02 15.8 C 10.36 g/m*3 15.8 C 0 km/h
46 30-09-2009 09:00:02 16 C 10.22 g/m*3 16 C 0 km/h
47 30-09-2009 09:12:01 16.1 C 10.01 g/m*3 16.1 C 0 km/h
48 30-09-2009 09:24:01 16.1 C 10.01 g/m*3 16.1 C 0 km/h
49 30-09-2009 09:36:02 16.3 C 10.13 g/m*3 16.3 C 0 km/h
50 30-09-2009 09:48:02 16.3 C 10.13 g/m*3 16.3 C 0 km/h
Sensor: Nr:Datum:Temp:Abs-Feuchte:Windchill:Wind:
Aussen-T/F 51 30-09-2009 10:00:02 16.2 C 9.93 g/m*3 16.2 C 0 km/h
52 30-09-2009 10:12:01 16.3 C 9.99 g/m*3 16.3 C 0 km/h
53 30-09-2009 10:24:02 16.3 C 9.99 g/m*3 16.3 C 0 km/h
54 30-09-2009 10:36:02 16 C 10.08 g/m*3 16 C 0 km/h
55 30-09-2009 10:48:02 16.2 C 10.2 g/m*3 16.2 C 0 km/h
56 30-09-2009 11:00:02 16.6 C 10.03 g/m*3 16.6 C 0 km/h
57 30-09-2009 11:12:03 17.4 C 10.08 g/m*3 17.4 C 0 km/h
58 30-09-2009 11:24:02 17.9 C 10.54 g/m*3 17.9 C 0 km/h
59 30-09-2009 11:36:02 18.4 C 9.91 g/m*3 18.4 C 0 km/h
60 30-09-2009 11:48:01 19 C 9.78 g/m*3 19 C 0 km/h
61 30-09-2009 12:00:01 19.1 C 9.67 g/m*3 19.1 C 0 km/h
62 30-09-2009 12:12:02 19.2 C 9.4 g/m*3 19.2 C 0 km/h
63 30-09-2009 12:24:01 19.7 C 9.51 g/m*3 19.7 C 0 km/h
64 30-09-2009 12:36:02 19.6 C 9.45 g/m*3 19.6 C 0 km/h
65 30-09-2009 12:48:02 19.4 C 9.34 g/m*3 19.4 C 0 km/h
66 30-09-2009 13:00:02 19.4 C 9.34 g/m*3 19.4 C 0 km/h
67 30-09-2009 13:12:02 19.6 C 9.79 g/m*3 19.6 C 0 km/h
68 30-09-2009 13:24:03 20.5 C 9.79 g/m*3 20.5 C 0 km/h
69 30-09-2009 13:36:02 20.6 C 9.66 g/m*3 20.6 C 0 km/h
70 30-09-2009 13:48:03 20.2 C 9.62 g/m*3 20.2 C 0 km/h
71 30-09-2009 14:00:03 20 C 9.51 g/m*3 20 C 0 km/h
72 30-09-2009 14:12:02 19.7 C 9.68 g/m*3 19.7 C 0 km/h
73 30-09-2009 14:24:02 19.4 C 9.51 g/m*3 19.4 C 0 km/h
74 30-09-2009 14:36:02 19.4 C 9.51 g/m*3 19.4 C 0 km/h
75 30-09-2009 14:48:02 19.3 C 9.62 g/m*3 19.3 C 0 km/h
Sensor: Nr:Datum:Temp:Abs-Feuchte:Windchill:Wind:
Aussen-T/F 76 30-09-2009 15:00:02 19.1 C 9.67 g/m*3 19.1 C 0 km/h
77 30-09-2009 15:12:02 19 C 9.61 g/m*3 19 C 0 km/h
78 30-09-2009 15:24:02 19.1 C 9.84 g/m*3 19.1 C 0 km/h
79 30-09-2009 15:36:02 19.2 C 9.73 g/m*3 19.2 C 0 km/h
80 30-09-2009 15:48:02 19.2 C 9.89 g/m*3 19.2 C 0 km/h
81 30-09-2009 16:00:02 19.1 C 9.84 g/m*3 19.1 C 0 km/h
82 30-09-2009 16:12:01 19.1 C 9.67 g/m*3 19.1 C 0 km/h
83 30-09-2009 16:24:02 19.3 C 9.62 g/m*3 19.3 C 0 km/h
84 30-09-2009 16:36:02 19.1 C 9.67 g/m*3 19.1 C 0 km/h
85 30-09-2009 16:48:01 19.1 C 10 g/m*3 19.1 C 0 km/h
86 30-09-2009 17:00:01 19.3 C 9.95 g/m*3 19.3 C 0 km/h
87 30-09-2009 17:12:02 19.3 C 9.62 g/m*3 19.3 C 0 km/h
88 30-09-2009 17:24:01 19.1 C 9.84 g/m*3 19.1 C 0 km/h
89 30-09-2009 17:36:02 18.9 C 10.21 g/m*3 18.9 C 0 km/h
90 30-09-2009 17:48:02 18.7 C 10.41 g/m*3 18.7 C 0 km/h
91 30-09-2009 18:00:02 18.4 C 10.38 g/m*3 18.4 C 0 km/h
92 30-09-2009 18:12:02 18.4 C 10.54 g/m*3 18.4 C 0 km/h
93 30-09-2009 18:24:01 18.4 C 10.54 g/m*3 18.4 C 0 km/h
94 30-09-2009 18:36:02 18.3 C 10.48 g/m*3 18.3 C 0 km/h
95 30-09-2009 18:48:02 17.8 C 10.47 g/m*3 17.8 C 0 km/h
96 30-09-2009 19:00:02 17.3 C 9.72 g/m*3 17.3 C 0 km/h
97 30-09-2009 19:12:02 16.9 C 9.78 g/m*3 16.9 C 0 km/h
98 30-09-2009 19:24:02 16.5 C 9.69 g/m*3 16.5 C 0 km/h
99 30-09-2009 19:36:02 16.3 C 9.71 g/m*3 16.3 C 0 km/h
100 30-09-2009 19:48:02 16.2 C 9.65 g/m*3 16.2 C 0 km/h
Sensor: Nr:Datum:Temp:Abs-Feuchte:Windchill:Wind:
Aussen-T/F 101 30-09-2009 20:00:02 16 C 9.54 g/m*3 16 C 0 km/h
102 30-09-2009 20:12:02 15.5 C 9.65 g/m*3 15.5 C 0 km/h
103 30-09-2009 20:24:02 15 C 9.62 g/m*3 15 C 0 km/h
104 30-09-2009 20:36:02 14.8 C 9.75 g/m*3 14.8 C 0 km/h
105 30-09-2009 20:48:02 14.6 C 9.64 g/m*3 14.6 C 0 km/h
106 30-09-2009 21:00:02 14.4 C 9.64 g/m*3 14.4 C 0 km/h
107 30-09-2009 21:12:03 14.5 C 9.95 g/m*3 14.5 C 0 km/h
108 30-09-2009 21:24:02 14.2 C 9.77 g/m*3 14.2 C 0 km/h
109 30-09-2009 21:36:02 14.1 C 9.71 g/m*3 14.1 C 0 km/h
110 30-09-2009 21:48:01 13.9 C 9.83 g/m*3 13.9 C 0 km/h
111 30-09-2009 22:00:01 13.8 C 9.89 g/m*3 13.8 C 0 km/h
112 30-09-2009 22:12:02 13.7 C 9.83 g/m*3 13.7 C 0 km/h
113 30-09-2009 22:24:01 13.6 C 9.77 g/m*3 13.6 C 0 km/h
114 30-09-2009 22:37:02 13.6 C 9.89 g/m*3 13.6 C 0 km/h
115 30-09-2009 22:49:02 13.4 C 9.76 g/m*3 13.4 C 0 km/h
116 30-09-2009 23:01:02 13.6 C 10 g/m*3 13.6 C 0 km/h
117 30-09-2009 23:13:02 13.6 C 10 g/m*3 13.6 C 0 km/h
118 30-09-2009 23:25:03 13.7 C 10.07 g/m*3 13.7 C 0 km/h
119 30-09-2009 23:37:03 13.7 C 10.07 g/m*3 13.7 C 0 km/h
120 30-09-2009 23:49:03 13.7 C 9.95 g/m*3 13.7 C 0 km/h

Legende:
   Min
   Max


Maximal/Minimal-Werte vom 30.09.2009 - 30.09.2009

Sensor Min Max Avg
Temp
(Aussen-T/F)
13.4 °C
30-09-2009  22:49:02
20.6 °C
30-09-2009  13:36:02
16.54 °C
Abs-Feuchte
(Aussen-T/F)
9.34 g/m*3
30-09-2009  12:48:02
10.54 g/m*3
30-09-2009  11:24:02
9.82 g/m*3
Windchill
(Aussen-T/F)
13.4 C
30-09-2009  22:49:02
20.6 C
30-09-2009  13:36:02
16.4 C

Die Daten stammen von einer Davis Vantage Pro 2 Wetter-Station und werden unter Linux mit der Software wview2wettercgi und aufbereitet. Alle Angaben erfolgen ohne Gewähr für ihre Vollständigkeit oder Richtigkeit.
Kontakt: Rainer Krienke krienke@uni-koblenz.de . Meine Webseiten an der Uni Koblenz oder privat.
Version: $Revision: 0.78 $